sensor_id;sensor_type;location;lat;lon;timestamp;temperature;humidity
584;HTU21D;27024;54.068;12.116;2022-12-07T00:01:38;1.86;111.26
584;HTU21D;27024;54.068;12.116;2022-12-07T00:04:07;1.91;110.84
584;HTU21D;27024;54.068;12.116;2022-12-07T00:06:43;1.91;110.80
584;HTU21D;27024;54.068;12.116;2022-12-07T00:09:14;1.91;110.82
584;HTU21D;27024;54.068;12.116;2022-12-07T00:11:42;1.82;110.95
584;HTU21D;27024;54.068;12.116;2022-12-07T00:14:13;1.77;110.94
584;HTU21D;27024;54.068;12.116;2022-12-07T00:16:41;1.72;111.47
584;HTU21D;27024;54.068;12.116;2022-12-07T00:19:09;1.69;111.88
584;HTU21D;27024;54.068;12.116;2022-12-07T00:21:36;1.63;112.11
584;HTU21D;27024;54.068;12.116;2022-12-07T00:24:05;1.57;113.00
584;HTU21D;27024;54.068;12.116;2022-12-07T00:26:34;1.52;113.22
584;HTU21D;27024;54.068;12.116;2022-12-07T00:29:13;1.57;113.42
584;HTU21D;27024;54.068;12.116;2022-12-07T00:31:41;1.55;113.64
584;HTU21D;27024;54.068;12.116;2022-12-07T00:34:13;1.41;114.62
584;HTU21D;27024;54.068;12.116;2022-12-07T00:36:40;1.47;114.87
584;HTU21D;27024;54.068;12.116;2022-12-07T00:39:07;1.45;115.14
584;HTU21D;27024;54.068;12.116;2022-12-07T00:41:34;1.41;115.39
584;HTU21D;27024;54.068;12.116;2022-12-07T00:44:01;1.39;115.71
584;HTU21D;27024;54.068;12.116;2022-12-07T00:46:27;1.29;116.09
584;HTU21D;27024;54.068;12.116;2022-12-07T00:48:54;1.33;116.24
584;HTU21D;27024;54.068;12.116;2022-12-07T00:51:23;1.19;116.67
584;HTU21D;27024;54.068;12.116;2022-12-07T00:53:51;1.25;116.73
584;HTU21D;27024;54.068;12.116;2022-12-07T00:58:58;1.28;116.38
584;HTU21D;27024;54.068;12.116;2022-12-07T01:01:29;1.18;116.70
584;HTU21D;27024;54.068;12.116;2022-12-07T01:03:56;1.08;116.99
584;HTU21D;27024;54.068;12.116;2022-12-07T01:06:23;1.25;117.23
584;HTU21D;27024;54.068;12.116;2022-12-07T01:08:51;1.26;116.77
584;HTU21D;27024;54.068;12.116;2022-12-07T01:11:20;1.27;116.71
584;HTU21D;27024;54.068;12.116;2022-12-07T01:13:50;1.32;116.54
584;HTU21D;27024;54.068;12.116;2022-12-07T01:16:17;1.33;116.43
584;HTU21D;27024;54.068;12.116;2022-12-07T01:18:50;1.24;116.73
584;HTU21D;27024;54.068;12.116;2022-12-07T01:21:18;1.25;116.80
584;HTU21D;27024;54.068;12.116;2022-12-07T01:23:49;1.24;116.84
584;HTU21D;27024;54.068;12.116;2022-12-07T01:26:20;1.26;117.04
584;HTU21D;27024;54.068;12.116;2022-12-07T01:28:47;1.28;116.98
584;HTU21D;27024;54.068;12.116;2022-12-07T01:31:19;1.27;116.96
584;HTU21D;27024;54.068;12.116;2022-12-07T01:33:47;1.35;116.86
584;HTU21D;27024;54.068;12.116;2022-12-07T01:36:17;1.33;116.81
584;HTU21D;27024;54.068;12.116;2022-12-07T01:38:45;1.38;116.81
584;HTU21D;27024;54.068;12.116;2022-12-07T01:41:13;1.26;117.05
584;HTU21D;27024;54.068;12.116;2022-12-07T01:46:35;1.25;117.25
584;HTU21D;27024;54.068;12.116;2022-12-07T01:49:04;1.26;117.23
584;HTU21D;27024;54.068;12.116;2022-12-07T01:51:33;1.26;117.32
584;HTU21D;27024;54.068;12.116;2022-12-07T01:54:01;1.32;117.43
584;HTU21D;27024;54.068;12.116;2022-12-07T01:56:28;1.33;117.42
584;HTU21D;27024;54.068;12.116;2022-12-07T01:58:56;1.35;117.35
584;HTU21D;27024;54.068;12.116;2022-12-07T02:01:23;1.20;117.42
584;HTU21D;27024;54.068;12.116;2022-12-07T02:03:50;1.23;118.02
584;HTU21D;27024;54.068;12.116;2022-12-07T02:06:21;1.24;117.76
584;HTU21D;27024;54.068;12.116;2022-12-07T02:08:49;1.21;117.88
584;HTU21D;27024;54.068;12.116;2022-12-07T02:11:16;1.31;117.85
584;HTU21D;27024;54.068;12.116;2022-12-07T02:13:44;1.29;117.76
584;HTU21D;27024;54.068;12.116;2022-12-07T02:17:03;1.23;117.71
584;HTU21D;27024;54.068;12.116;2022-12-07T02:28:20;1.24;117.87
584;HTU21D;27024;54.068;12.116;2022-12-07T02:30:50;1.28;118.14
584;HTU21D;27024;54.068;12.116;2022-12-07T02:33:26;1.34;117.99
584;HTU21D;27024;54.068;12.116;2022-12-07T02:36:08;1.36;117.84
584;HTU21D;27024;54.068;12.116;2022-12-07T02:38:47;1.33;117.86
584;HTU21D;27024;54.068;12.116;2022-12-07T02:41:24;1.39;117.79
584;HTU21D;27024;54.068;12.116;2022-12-07T02:43:56;1.32;117.69
584;HTU21D;27024;54.068;12.116;2022-12-07T02:46:28;1.32;118.00
584;HTU21D;27024;54.068;12.116;2022-12-07T02:48:57;1.32;117.86
584;HTU21D;27024;54.068;12.116;2022-12-07T02:51:30;1.38;117.89
584;HTU21D;27024;54.068;12.116;2022-12-07T02:53:57;1.28;117.80
584;HTU21D;27024;54.068;12.116;2022-12-07T02:56:48;1.36;117.79
584;HTU21D;27024;54.068;12.116;2022-12-07T03:15:49;1.35;117.86
584;HTU21D;27024;54.068;12.116;2022-12-07T03:18:21;1.28;118.19
584;HTU21D;27024;54.068;12.116;2022-12-07T03:20:49;1.38;118.32
584;HTU21D;27024;54.068;12.116;2022-12-07T03:23:18;1.41;118.05
584;HTU21D;27024;54.068;12.116;2022-12-07T03:25:49;1.40;118.06
584;HTU21D;27024;54.068;12.116;2022-12-07T03:28:31;1.40;118.11
584;HTU21D;27024;54.068;12.116;2022-12-07T03:31:08;1.38;118.21
584;HTU21D;27024;54.068;12.116;2022-12-07T03:33:44;1.36;118.64
584;HTU21D;27024;54.068;12.116;2022-12-07T03:41:39;1.41;118.41
584;HTU21D;27024;54.068;12.116;2022-12-07T03:44:12;1.37;118.47
584;HTU21D;27024;54.068;12.116;2022-12-07T03:49:23;1.31;118.99
584;HTU21D;27024;54.068;12.116;2022-12-07T03:56:50;1.28;118.99
584;HTU21D;27024;54.068;12.116;2022-12-07T03:59:19;1.26;118.99
584;HTU21D;27024;54.068;12.116;2022-12-07T04:01:53;1.28;118.99
584;HTU21D;27024;54.068;12.116;2022-12-07T04:04:22;1.36;118.99
584;HTU21D;27024;54.068;12.116;2022-12-07T04:06:49;1.36;118.99
584;HTU21D;27024;54.068;12.116;2022-12-07T04:09:16;1.34;118.99
584;HTU21D;27024;54.068;12.116;2022-12-07T04:11:43;1.36;118.99
584;HTU21D;27024;54.068;12.116;2022-12-07T04:14:10;1.29;118.99
584;HTU21D;27024;54.068;12.116;2022-12-07T04:16:48;1.29;118.99
584;HTU21D;27024;54.068;12.116;2022-12-07T04:19:17;1.32;118.99
584;HTU21D;27024;54.068;12.116;2022-12-07T04:21:44;1.26;118.99
584;HTU21D;27024;54.068;12.116;2022-12-07T04:24:13;1.35;118.99
584;HTU21D;27024;54.068;12.116;2022-12-07T04:26:41;1.35;118.99
584;HTU21D;27024;54.068;12.116;2022-12-07T04:29:09;1.41;118.99
584;HTU21D;27024;54.068;12.116;2022-12-07T04:31:36;1.40;118.99
584;HTU21D;27024;54.068;12.116;2022-12-07T04:34:04;1.49;118.99
584;HTU21D;27024;54.068;12.116;2022-12-07T04:36:31;1.40;118.99
584;HTU21D;27024;54.068;12.116;2022-12-07T04:38:58;1.42;118.99
584;HTU21D;27024;54.068;12.116;2022-12-07T04:41:26;1.40;118.99
584;HTU21D;27024;54.068;12.116;2022-12-07T04:44:03;1.45;118.99
584;HTU21D;27024;54.068;12.116;2022-12-07T04:46:31;1.55;118.99
584;HTU21D;27024;54.068;12.116;2022-12-07T04:48:59;1.55;118.99
584;HTU21D;27024;54.068;12.116;2022-12-07T04:51:27;1.58;118.99
584;HTU21D;27024;54.068;12.116;2022-12-07T04:53:55;1.62;118.99
584;HTU21D;27024;54.068;12.116;2022-12-07T04:56:22;1.58;118.99
584;HTU21D;27024;54.068;12.116;2022-12-07T04:58:50;1.60;118.99
584;HTU21D;27024;54.068;12.116;2022-12-07T05:01:18;1.60;118.99
584;HTU21D;27024;54.068;12.116;2022-12-07T05:03:45;1.62;118.98
584;HTU21D;27024;54.068;12.116;2022-12-07T05:06:12;1.62;118.99
584;HTU21D;27024;54.068;12.116;2022-12-07T05:08:40;1.58;118.96
584;HTU21D;27024;54.068;12.116;2022-12-07T05:11:08;1.70;118.93
584;HTU21D;27024;54.068;12.116;2022-12-07T05:13:35;1.66;118.49
584;HTU21D;27024;54.068;12.116;2022-12-07T05:16:02;1.63;118.28
584;HTU21D;27024;54.068;12.116;2022-12-07T05:18:29;1.61;118.50
584;HTU21D;27024;54.068;12.116;2022-12-07T05:20:56;1.67;118.44
584;HTU21D;27024;54.068;12.116;2022-12-07T05:23:23;1.67;118.36
584;HTU21D;27024;54.068;12.116;2022-12-07T05:25:49;1.64;118.26
584;HTU21D;27024;54.068;12.116;2022-12-07T05:28:16;1.63;118.39
584;HTU21D;27024;54.068;12.116;2022-12-07T05:30:43;1.66;118.46
584;HTU21D;27024;54.068;12.116;2022-12-07T05:33:10;2.35;118.99
584;HTU21D;27024;54.068;12.116;2022-12-07T05:35:36;2.58;118.99
584;HTU21D;27024;54.068;12.116;2022-12-07T05:38:04;1.99;118.69
584;HTU21D;27024;54.068;12.116;2022-12-07T05:40:31;1.91;118.94
584;HTU21D;27024;54.068;12.116;2022-12-07T05:42:57;1.88;118.96
584;HTU21D;27024;54.068;12.116;2022-12-07T05:45:30;1.79;118.99
584;HTU21D;27024;54.068;12.116;2022-12-07T05:47:57;1.79;118.99
584;HTU21D;27024;54.068;12.116;2022-12-07T05:50:24;1.79;118.99
584;HTU21D;27024;54.068;12.116;2022-12-07T05:52:51;1.77;118.99
584;HTU21D;27024;54.068;12.116;2022-12-07T05:55:17;2.06;118.99
584;HTU21D;27024;54.068;12.116;2022-12-07T05:57:44;1.87;118.86
584;HTU21D;27024;54.068;12.116;2022-12-07T06:00:31;1.79;118.75
584;HTU21D;27024;54.068;12.116;2022-12-07T06:02:58;1.80;118.37
584;HTU21D;27024;54.068;12.116;2022-12-07T06:05:25;1.81;118.22
584;HTU21D;27024;54.068;12.116;2022-12-07T06:07:51;1.76;118.15
584;HTU21D;27024;54.068;12.116;2022-12-07T06:10:18;1.75;118.18
584;HTU21D;27024;54.068;12.116;2022-12-07T06:12:45;1.78;118.08
584;HTU21D;27024;54.068;12.116;2022-12-07T06:15:12;1.76;118.02
584;HTU21D;27024;54.068;12.116;2022-12-07T06:17:39;1.72;118.08
584;HTU21D;27024;54.068;12.116;2022-12-07T06:20:07;1.73;118.11
584;HTU21D;27024;54.068;12.116;2022-12-07T06:22:33;1.72;118.03
584;HTU21D;27024;54.068;12.116;2022-12-07T06:25:00;1.75;118.08
584;HTU21D;27024;54.068;12.116;2022-12-07T06:27:34;1.68;118.23
584;HTU21D;27024;54.068;12.116;2022-12-07T06:30:02;1.77;118.12
584;HTU21D;27024;54.068;12.116;2022-12-07T06:32:33;1.73;117.79
584;HTU21D;27024;54.068;12.116;2022-12-07T06:35:00;1.65;118.15
584;HTU21D;27024;54.068;12.116;2022-12-07T06:37:27;1.78;117.96
584;HTU21D;27024;54.068;12.116;2022-12-07T06:39:54;1.70;117.88
584;HTU21D;27024;54.068;12.116;2022-12-07T06:42:21;1.65;118.08
584;HTU21D;27024;54.068;12.116;2022-12-07T06:44:48;1.63;118.18
584;HTU21D;27024;54.068;12.116;2022-12-07T06:47:15;1.58;118.37
584;HTU21D;27024;54.068;12.116;2022-12-07T06:50:02;1.55;118.28
584;HTU21D;27024;54.068;12.116;2022-12-07T06:52:30;1.51;118.73
584;HTU21D;27024;54.068;12.116;2022-12-07T06:54:56;1.55;118.80
584;HTU21D;27024;54.068;12.116;2022-12-07T06:57:23;1.64;118.66
584;HTU21D;27024;54.068;12.116;2022-12-07T06:59:50;1.57;118.74
584;HTU21D;27024;54.068;12.116;2022-12-07T07:02:17;1.57;118.68
584;HTU21D;27024;54.068;12.116;2022-12-07T07:04:44;1.61;118.68
584;HTU21D;27024;54.068;12.116;2022-12-07T07:07:11;1.61;118.82
584;HTU21D;27024;54.068;12.116;2022-12-07T07:09:37;1.62;118.84
584;HTU21D;27024;54.068;12.116;2022-12-07T07:12:04;1.68;118.79
584;HTU21D;27024;54.068;12.116;2022-12-07T07:14:31;1.83;118.39
584;HTU21D;27024;54.068;12.116;2022-12-07T07:16:58;1.87;117.90
584;HTU21D;27024;54.068;12.116;2022-12-07T07:19:25;1.81;117.79
584;HTU21D;27024;54.068;12.116;2022-12-07T07:21:51;1.85;117.91
584;HTU21D;27024;54.068;12.116;2022-12-07T07:24:18;1.76;118.13
584;HTU21D;27024;54.068;12.116;2022-12-07T07:26:45;1.78;118.32
584;HTU21D;27024;54.068;12.116;2022-12-07T07:29:12;1.72;118.41
584;HTU21D;27024;54.068;12.116;2022-12-07T07:31:39;1.72;118.64
584;HTU21D;27024;54.068;12.116;2022-12-07T07:34:06;1.71;118.73
584;HTU21D;27024;54.068;12.116;2022-12-07T07:36:32;1.73;118.87
584;HTU21D;27024;54.068;12.116;2022-12-07T07:38:59;1.71;118.90
584;HTU21D;27024;54.068;12.116;2022-12-07T07:41:26;1.86;118.79
584;HTU21D;27024;54.068;12.116;2022-12-07T07:43:53;1.76;118.53
584;HTU21D;27024;54.068;12.116;2022-12-07T07:46:19;1.76;118.57
584;HTU21D;27024;54.068;12.116;2022-12-07T07:48:46;1.81;118.55
584;HTU21D;27024;54.068;12.116;2022-12-07T07:51:13;1.79;118.49
584;HTU21D;27024;54.068;12.116;2022-12-07T07:53:40;1.85;118.60
584;HTU21D;27024;54.068;12.116;2022-12-07T07:56:07;1.94;118.35
584;HTU21D;27024;54.068;12.116;2022-12-07T07:58:34;1.97;118.11
584;HTU21D;27024;54.068;12.116;2022-12-07T08:01:07;2.00;118.14
584;HTU21D;27024;54.068;12.116;2022-12-07T08:03:35;2.02;118.27
584;HTU21D;27024;54.068;12.116;2022-12-07T08:06:03;2.20;118.23
584;HTU21D;27024;54.068;12.116;2022-12-07T08:08:30;2.21;118.00
584;HTU21D;27024;54.068;12.116;2022-12-07T08:10:57;2.31;117.86
584;HTU21D;27024;54.068;12.116;2022-12-07T08:13:27;2.35;117.54
584;HTU21D;27024;54.068;12.116;2022-12-07T08:15:57;2.30;117.54
584;HTU21D;27024;54.068;12.116;2022-12-07T08:18:24;2.38;117.24
584;HTU21D;27024;54.068;12.116;2022-12-07T08:20:51;2.32;116.71
584;HTU21D;27024;54.068;12.116;2022-12-07T08:23:18;2.42;116.71
584;HTU21D;27024;54.068;12.116;2022-12-07T08:25:44;2.67;116.44
584;HTU21D;27024;54.068;12.116;2022-12-07T08:28:11;2.87;115.89
584;HTU21D;27024;54.068;12.116;2022-12-07T08:30:38;2.76;115.63
584;HTU21D;27024;54.068;12.116;2022-12-07T08:33:04;2.70;116.25
584;HTU21D;27024;54.068;12.116;2022-12-07T08:35:33;2.69;115.41
584;HTU21D;27024;54.068;12.116;2022-12-07T08:38:00;2.76;114.29
584;HTU21D;27024;54.068;12.116;2022-12-07T08:40:29;2.86;113.54
584;HTU21D;27024;54.068;12.116;2022-12-07T08:42:55;2.84;113.19
584;HTU21D;27024;54.068;12.116;2022-12-07T08:45:22;2.72;114.17
584;HTU21D;27024;54.068;12.116;2022-12-07T08:48:07;2.56;115.34
584;HTU21D;27024;54.068;12.116;2022-12-07T08:50:37;2.50;115.36
584;HTU21D;27024;54.068;12.116;2022-12-07T08:53:05;2.50;115.09
584;HTU21D;27024;54.068;12.116;2022-12-07T08:55:33;2.42;114.62
584;HTU21D;27024;54.068;12.116;2022-12-07T08:58:02;2.44;114.44
584;HTU21D;27024;54.068;12.116;2022-12-07T09:00:29;2.65;114.00
584;HTU21D;27024;54.068;12.116;2022-12-07T09:02:55;2.57;114.24
584;HTU21D;27024;54.068;12.116;2022-12-07T09:05:22;2.64;114.77
584;HTU21D;27024;54.068;12.116;2022-12-07T09:07:51;2.68;114.48
584;HTU21D;27024;54.068;12.116;2022-12-07T09:10:20;2.91;113.96
584;HTU21D;27024;54.068;12.116;2022-12-07T09:12:47;2.89;114.32
584;HTU21D;27024;54.068;12.116;2022-12-07T09:15:14;2.89;114.35
584;HTU21D;27024;54.068;12.116;2022-12-07T09:17:41;2.82;114.62
584;HTU21D;27024;54.068;12.116;2022-12-07T09:20:08;2.81;115.19
584;HTU21D;27024;54.068;12.116;2022-12-07T09:22:35;3.05;116.25
584;HTU21D;27024;54.068;12.116;2022-12-07T09:25:03;3.89;117.51
584;HTU21D;27024;54.068;12.116;2022-12-07T09:27:30;3.61;114.28
584;HTU21D;27024;54.068;12.116;2022-12-07T09:29:57;3.93;115.04
584;HTU21D;27024;54.068;12.116;2022-12-07T09:32:24;3.38;112.48
584;HTU21D;27024;54.068;12.116;2022-12-07T09:34:51;3.73;110.14
584;HTU21D;27024;54.068;12.116;2022-12-07T09:37:18;4.16;108.27
584;HTU21D;27024;54.068;12.116;2022-12-07T09:39:45;4.21;106.44
584;HTU21D;27024;54.068;12.116;2022-12-07T09:42:30;3.94;108.44
584;HTU21D;27024;54.068;12.116;2022-12-07T09:44:59;4.61;105.37
584;HTU21D;27024;54.068;12.116;2022-12-07T09:47:27;4.38;105.48
584;HTU21D;27024;54.068;12.116;2022-12-07T09:50:03;4.48;106.07
584;HTU21D;27024;54.068;12.116;2022-12-07T09:52:31;4.35;106.51
584;HTU21D;27024;54.068;12.116;2022-12-07T09:55:13;4.21;106.56
584;HTU21D;27024;54.068;12.116;2022-12-07T09:57:41;4.15;107.01
584;HTU21D;27024;54.068;12.116;2022-12-07T10:00:18;4.18;107.68
584;HTU21D;27024;54.068;12.116;2022-12-07T10:05:31;4.61;104.97
584;HTU21D;27024;54.068;12.116;2022-12-07T10:08:00;4.46;105.07
584;HTU21D;27024;54.068;12.116;2022-12-07T10:10:31;5.01;103.52
584;HTU21D;27024;54.068;12.116;2022-12-07T10:13:07;4.92;101.38
584;HTU21D;27024;54.068;12.116;2022-12-07T10:15:56;5.04;101.45
584;HTU21D;27024;54.068;12.116;2022-12-07T10:18:37;4.87;102.18
584;HTU21D;27024;54.068;12.116;2022-12-07T10:21:08;4.93;102.07
584;HTU21D;27024;54.068;12.116;2022-12-07T10:23:38;5.30;100.90
584;HTU21D;27024;54.068;12.116;2022-12-07T10:26:29;5.76;97.80
584;HTU21D;27024;54.068;12.116;2022-12-07T10:28:57;5.96;97.10
584;HTU21D;27024;54.068;12.116;2022-12-07T10:31:25;5.78;96.63
584;HTU21D;27024;54.068;12.116;2022-12-07T10:34:00;5.84;97.04
584;HTU21D;27024;54.068;12.116;2022-12-07T10:36:33;6.04;93.26
584;HTU21D;27024;54.068;12.116;2022-12-07T10:39:15;6.19;92.14
584;HTU21D;27024;54.068;12.116;2022-12-07T10:41:59;6.39;94.01
584;HTU21D;27024;54.068;12.116;2022-12-07T10:44:30;5.84;96.35
584;HTU21D;27024;54.068;12.116;2022-12-07T10:50:02;5.15;97.74
584;HTU21D;27024;54.068;12.116;2022-12-07T10:57:51;4.33;100.92
584;HTU21D;27024;54.068;12.116;2022-12-07T11:00:26;4.39;101.98
584;HTU21D;27024;54.068;12.116;2022-12-07T11:10:55;3.93;98.26
584;HTU21D;27024;54.068;12.116;2022-12-07T11:16:36;4.17;99.33
584;HTU21D;27024;54.068;12.116;2022-12-07T11:22:00;3.82;98.15
584;HTU21D;27024;54.068;12.116;2022-12-07T11:24:34;3.65;98.85
584;HTU21D;27024;54.068;12.116;2022-12-07T11:37:49;3.19;103.25
584;HTU21D;27024;54.068;12.116;2022-12-07T11:40:28;3.06;103.54
584;HTU21D;27024;54.068;12.116;2022-12-07T11:43:03;2.88;103.74
584;HTU21D;27024;54.068;12.116;2022-12-07T11:45:33;2.84;105.21
584;HTU21D;27024;54.068;12.116;2022-12-07T11:53:30;2.73;100.56
584;HTU21D;27024;54.068;12.116;2022-12-07T12:06:38;2.91;104.12
584;HTU21D;27024;54.068;12.116;2022-12-07T12:09:14;2.84;103.95
584;HTU21D;27024;54.068;12.116;2022-12-07T12:18:11;2.84;102.50
584;HTU21D;27024;54.068;12.116;2022-12-07T12:20:50;3.03;100.80
584;HTU21D;27024;54.068;12.116;2022-12-07T12:23:27;3.23;99.67
584;HTU21D;27024;54.068;12.116;2022-12-07T12:26:02;3.24;99.81
584;HTU21D;27024;54.068;12.116;2022-12-07T12:28:42;3.25;101.72
584;HTU21D;27024;54.068;12.116;2022-12-07T12:33:58;3.14;99.40
584;HTU21D;27024;54.068;12.116;2022-12-07T12:46:55;3.11;97.92
584;HTU21D;27024;54.068;12.116;2022-12-07T12:57:01;3.06;96.73
584;HTU21D;27024;54.068;12.116;2022-12-07T12:59:41;2.97;97.58
584;HTU21D;27024;54.068;12.116;2022-12-07T13:04:59;2.90;99.16
584;HTU21D;27024;54.068;12.116;2022-12-07T13:29:13;2.76;99.58
584;HTU21D;27024;54.068;12.116;2022-12-07T13:34:37;2.84;100.86
584;HTU21D;27024;54.068;12.116;2022-12-07T13:37:08;2.81;100.56
584;HTU21D;27024;54.068;12.116;2022-12-07T13:39:52;2.80;97.39
584;HTU21D;27024;54.068;12.116;2022-12-07T13:42:31;2.87;96.52
584;HTU21D;27024;54.068;12.116;2022-12-07T13:45:00;2.86;93.62
584;HTU21D;27024;54.068;12.116;2022-12-07T13:47:36;2.88;94.20
584;HTU21D;27024;54.068;12.116;2022-12-07T13:50:28;2.85;94.02
584;HTU21D;27024;54.068;12.116;2022-12-07T13:52:57;2.89;92.14
584;HTU21D;27024;54.068;12.116;2022-12-07T13:55:24;2.93;91.82
584;HTU21D;27024;54.068;12.116;2022-12-07T13:57:52;2.96;93.27
584;HTU21D;27024;54.068;12.116;2022-12-07T14:00:25;2.96;91.16
584;HTU21D;27024;54.068;12.116;2022-12-07T14:03:03;2.86;90.95
584;HTU21D;27024;54.068;12.116;2022-12-07T14:05:32;2.82;91.69
584;HTU21D;27024;54.068;12.116;2022-12-07T14:10:37;2.80;88.65
584;HTU21D;27024;54.068;12.116;2022-12-07T14:13:39;2.80;90.37
584;HTU21D;27024;54.068;12.116;2022-12-07T14:18:46;2.88;90.24
584;HTU21D;27024;54.068;12.116;2022-12-07T14:23:40;2.87;90.30
584;HTU21D;27024;54.068;12.116;2022-12-07T14:26:11;2.85;91.31
584;HTU21D;27024;54.068;12.116;2022-12-07T14:28:39;2.86;92.65
584;HTU21D;27024;54.068;12.116;2022-12-07T14:31:15;2.78;93.15
584;HTU21D;27024;54.068;12.116;2022-12-07T14:33:51;2.85;94.29
584;HTU21D;27024;54.068;12.116;2022-12-07T14:36:18;2.72;96.92
584;HTU21D;27024;54.068;12.116;2022-12-07T14:38:45;2.65;99.94
584;HTU21D;27024;54.068;12.116;2022-12-07T14:41:15;2.57;102.10
584;HTU21D;27024;54.068;12.116;2022-12-07T14:44:12;2.58;102.70
584;HTU21D;27024;54.068;12.116;2022-12-07T14:46:59;2.57;102.75
584;HTU21D;27024;54.068;12.116;2022-12-07T14:49:46;2.49;103.18
584;HTU21D;27024;54.068;12.116;2022-12-07T14:52:17;2.70;101.22
584;HTU21D;27024;54.068;12.116;2022-12-07T14:55:05;2.54;102.83
584;HTU21D;27024;54.068;12.116;2022-12-07T14:57:32;2.60;99.06
584;HTU21D;27024;54.068;12.116;2022-12-07T15:00:01;2.70;98.06
584;HTU21D;27024;54.068;12.116;2022-12-07T15:02:28;2.76;96.97
584;HTU21D;27024;54.068;12.116;2022-12-07T15:04:55;2.75;97.08
584;HTU21D;27024;54.068;12.116;2022-12-07T15:07:22;2.78;96.32
584;HTU21D;27024;54.068;12.116;2022-12-07T15:09:50;2.68;96.45
584;HTU21D;27024;54.068;12.116;2022-12-07T15:12:16;2.64;97.41
584;HTU21D;27024;54.068;12.116;2022-12-07T15:14:43;2.57;98.20
584;HTU21D;27024;54.068;12.116;2022-12-07T15:17:11;2.70;96.57
584;HTU21D;27024;54.068;12.116;2022-12-07T15:19:53;2.56;97.59
584;HTU21D;27024;54.068;12.116;2022-12-07T15:22:20;2.76;96.55
584;HTU21D;27024;54.068;12.116;2022-12-07T15:24:46;2.83;97.62
584;HTU21D;27024;54.068;12.116;2022-12-07T15:27:13;2.81;97.27
584;HTU21D;27024;54.068;12.116;2022-12-07T15:29:40;2.71;97.58
584;HTU21D;27024;54.068;12.116;2022-12-07T15:32:06;2.64;99.19
584;HTU21D;27024;54.068;12.116;2022-12-07T15:34:33;2.71;97.62
584;HTU21D;27024;54.068;12.116;2022-12-07T15:37:06;2.84;95.97
584;HTU21D;27024;54.068;12.116;2022-12-07T15:39:33;2.73;98.21
584;HTU21D;27024;54.068;12.116;2022-12-07T15:42:01;2.71;96.40
584;HTU21D;27024;54.068;12.116;2022-12-07T15:44:27;2.73;97.81
584;HTU21D;27024;54.068;12.116;2022-12-07T15:47:13;2.74;97.96
584;HTU21D;27024;54.068;12.116;2022-12-07T15:49:39;2.85;97.87
584;HTU21D;27024;54.068;12.116;2022-12-07T15:52:06;2.72;98.55
584;HTU21D;27024;54.068;12.116;2022-12-07T15:54:33;2.87;97.27
584;HTU21D;27024;54.068;12.116;2022-12-07T15:57:00;2.84;97.25
584;HTU21D;27024;54.068;12.116;2022-12-07T15:59:27;2.73;100.41
584;HTU21D;27024;54.068;12.116;2022-12-07T16:01:55;2.60;104.37
584;HTU21D;27024;54.068;12.116;2022-12-07T16:04:22;2.49;105.95
584;HTU21D;27024;54.068;12.116;2022-12-07T16:06:49;2.41;106.52
584;HTU21D;27024;54.068;12.116;2022-12-07T16:09:18;2.34;105.90
584;HTU21D;27024;54.068;12.116;2022-12-07T16:11:45;2.41;105.94
584;HTU21D;27024;54.068;12.116;2022-12-07T16:14:12;2.38;106.40
584;HTU21D;27024;54.068;12.116;2022-12-07T16:16:39;2.32;107.06
584;HTU21D;27024;54.068;12.116;2022-12-07T16:19:07;2.28;108.12
584;HTU21D;27024;54.068;12.116;2022-12-07T16:21:35;2.28;107.41
584;HTU21D;27024;54.068;12.116;2022-12-07T16:24:02;2.36;106.99
584;HTU21D;27024;54.068;12.116;2022-12-07T16:26:29;2.44;106.56
584;HTU21D;27024;54.068;12.116;2022-12-07T16:28:57;2.49;106.20
584;HTU21D;27024;54.068;12.116;2022-12-07T16:31:26;2.44;106.63
584;HTU21D;27024;54.068;12.116;2022-12-07T16:33:56;2.45;107.39
584;HTU21D;27024;54.068;12.116;2022-12-07T16:36:24;2.40;108.20
584;HTU21D;27024;54.068;12.116;2022-12-07T16:39:12;2.34;108.30
584;HTU21D;27024;54.068;12.116;2022-12-07T16:41:39;2.29;108.49
584;HTU21D;27024;54.068;12.116;2022-12-07T16:44:09;2.32;109.14
584;HTU21D;27024;54.068;12.116;2022-12-07T16:46:37;2.40;108.11
584;HTU21D;27024;54.068;12.116;2022-12-07T16:49:04;2.45;107.11
584;HTU21D;27024;54.068;12.116;2022-12-07T16:51:31;2.42;107.09
584;HTU21D;27024;54.068;12.116;2022-12-07T16:53:58;2.36;106.65
584;HTU21D;27024;54.068;12.116;2022-12-07T16:56:25;2.43;103.80
584;HTU21D;27024;54.068;12.116;2022-12-07T16:58:53;2.42;103.14
584;HTU21D;27024;54.068;12.116;2022-12-07T17:01:22;2.51;100.80
584;HTU21D;27024;54.068;12.116;2022-12-07T17:03:50;2.44;101.14
584;HTU21D;27024;54.068;12.116;2022-12-07T17:06:22;2.46;101.43
584;HTU21D;27024;54.068;12.116;2022-12-07T17:08:51;2.56;100.34
584;HTU21D;27024;54.068;12.116;2022-12-07T17:11:21;2.57;99.73
584;HTU21D;27024;54.068;12.116;2022-12-07T17:13:49;2.49;100.61
584;HTU21D;27024;54.068;12.116;2022-12-07T17:16:35;2.59;100.11
584;HTU21D;27024;54.068;12.116;2022-12-07T17:19:07;2.59;99.46
584;HTU21D;27024;54.068;12.116;2022-12-07T17:21:35;2.58;99.74
584;HTU21D;27024;54.068;12.116;2022-12-07T17:24:04;2.59;100.41
584;HTU21D;27024;54.068;12.116;2022-12-07T17:26:32;2.53;102.06
584;HTU21D;27024;54.068;12.116;2022-12-07T17:29:05;2.51;102.72
584;HTU21D;27024;54.068;12.116;2022-12-07T17:31:32;2.49;102.25
584;HTU21D;27024;54.068;12.116;2022-12-07T17:33:59;2.41;103.16
584;HTU21D;27024;54.068;12.116;2022-12-07T17:36:28;2.41;103.83
584;HTU21D;27024;54.068;12.116;2022-12-07T17:38:56;2.68;105.41
584;HTU21D;27024;54.068;12.116;2022-12-07T17:41:25;2.86;104.82
584;HTU21D;27024;54.068;12.116;2022-12-07T17:44:16;3.03;107.16
584;HTU21D;27024;54.068;12.116;2022-12-07T17:46:45;2.65;103.67
584;HTU21D;27024;54.068;12.116;2022-12-07T17:49:13;2.47;103.94
584;HTU21D;27024;54.068;12.116;2022-12-07T17:51:40;2.59;103.12
584;HTU21D;27024;54.068;12.116;2022-12-07T17:54:25;2.52;103.02
584;HTU21D;27024;54.068;12.116;2022-12-07T17:56:52;2.60;102.64
584;HTU21D;27024;54.068;12.116;2022-12-07T17:59:19;2.45;103.91
584;HTU21D;27024;54.068;12.116;2022-12-07T18:01:46;2.51;102.71
584;HTU21D;27024;54.068;12.116;2022-12-07T18:04:13;2.37;104.02
584;HTU21D;27024;54.068;12.116;2022-12-07T18:06:40;2.39;104.09
584;HTU21D;27024;54.068;12.116;2022-12-07T18:09:06;2.30;102.35
584;HTU21D;27024;54.068;12.116;2022-12-07T18:11:34;2.25;103.31
584;HTU21D;27024;54.068;12.116;2022-12-07T18:14:02;2.25;103.91
584;HTU21D;27024;54.068;12.116;2022-12-07T18:16:30;2.14;105.26
584;HTU21D;27024;54.068;12.116;2022-12-07T18:18:59;2.16;105.68
584;HTU21D;27024;54.068;12.116;2022-12-07T18:21:28;2.19;103.94
584;HTU21D;27024;54.068;12.116;2022-12-07T18:23:57;2.13;104.31
584;HTU21D;27024;54.068;12.116;2022-12-07T18:26:24;2.08;104.83
584;HTU21D;27024;54.068;12.116;2022-12-07T18:28:52;2.21;105.98